Time;durP1;ratioP1;P1;durP2;ratioP2;P2;SDS_P1;SDS_P2;PMS_P1;PMS_P2;Temp;Humidity;BMP_temperature;BMP_pressure;BME280_temperature;BME280_humidity;BME280_pressure;Samples;Min_cycle;Max_cycle;Signal;HPM_P1;HPM_P2
2023/10/14 00:02:21;;;;;;;0.10;0.10;;;;;;;;;;5019374;28;20061;-71
2023/10/14 00:04:52;;;;;;;1.00;1.00;;;;;;;;;;5023542;28;20533;-71
2023/10/14 00:07:24;;;;;;;4.88;1.17;;;;;;;;;;5021498;28;20119;-71
2023/10/14 00:09:52;;;;;;;0.00;0.00;;;;;;;;;;5021793;28;20038;-71
2023/10/14 00:12:20;;;;;;;0.00;0.00;;;;;;;;;;5017113;28;20041;-71
2023/10/14 00:14:53;;;;;;;1.20;1.20;;;;;;;;;;5021773;28;20060;-71
2023/10/14 00:17:21;;;;;;;0.70;0.65;;;;;;;;;;5023768;28;20145;-71
2023/10/14 00:19:55;;;;;;;2.90;2.10;;;;;;;;;;5022238;28;20057;-71
2023/10/14 00:22:26;;;;;;;0.22;0.22;;;;;;;;;;5021400;28;20049;-71
2023/10/14 00:24:54;;;;;;;59.55;55.17;;;;;;;;;;5024434;28;20459;-72
2023/10/14 00:27:23;;;;;;;0.45;0.45;;;;;;;;;;5020410;28;20050;-71
2023/10/14 00:30:09;;;;;;;1.25;1.15;;;;;;;;;;5029780;28;20125;-72
2023/10/14 00:32:36;;;;;;;0.10;0.10;;;;;;;;;;5018920;28;20414;-72
2023/10/14 00:35:06;;;;;;;0.47;0.47;;;;;;;;;;5022650;28;20132;-71
2023/10/14 00:37:34;;;;;;;0.17;0.17;;;;;;;;;;5023646;28;20041;-72
2023/10/14 00:40:10;;;;;;;0.43;0.40;;;;;;;;;;5023565;28;20049;-72
2023/10/14 00:42:41;;;;;;;0.35;0.30;;;;;;;;;;5024717;28;20115;-72
2023/10/14 00:45:09;;;;;;;0.10;0.10;;;;;;;;;;5022614;28;20111;-72
2023/10/14 00:47:40;;;;;;;0.30;0.30;;;;;;;;;;5025546;28;20343;-72
2023/10/14 00:50:22;;;;;;;0.20;0.20;;;;;;;;;;5018240;28;20045;-72
2023/10/14 00:52:57;;;;;;;7.10;6.68;;;;;;;;;;5015984;28;20304;-72
2023/10/14 00:55:34;;;;;;;0.95;0.95;;;;;;;;;;5030386;28;20058;-72
2023/10/14 00:58:01;;;;;;;0.28;0.28;;;;;;;;;;5021447;28;20124;-72
2023/10/14 01:00:38;;;;;;;20.27;18.98;;;;;;;;;;5022858;28;20380;-71
2023/10/14 01:03:09;;;;;;;0.10;0.10;;;;;;;;;;5023819;28;20080;-72
2023/10/14 01:05:37;;;;;;;0.82;0.30;;;;;;;;;;5016957;28;20063;-71
2023/10/14 01:08:11;;;;;;;0.98;0.75;;;;;;;;;;5016497;28;20053;-72
2023/10/14 01:10:39;;;;;;;0.40;0.40;;;;;;;;;;5019608;28;20045;-71
2023/10/14 01:13:09;;;;;;;0.30;0.30;;;;;;;;;;5017384;28;20041;-71
2023/10/14 01:15:42;;;;;;;0.80;0.80;;;;;;;;;;5020152;28;20590;-72
2023/10/14 01:18:14;;;;;;;0.25;0.22;;;;;;;;;;5034361;28;20047;-72
2023/10/14 01:20:42;;;;;;;0.88;0.88;;;;;;;;;;5017240;28;20541;-71
2023/10/14 01:23:17;;;;;;;0.20;0.20;;;;;;;;;;5013704;28;20049;-72
2023/10/14 01:25:48;;;;;;;0.10;0.10;;;;;;;;;;5015908;28;20053;-72
2023/10/14 01:28:21;;;;;;;8.40;7.97;;;;;;;;;;5022724;28;20059;-72
2023/10/14 01:31:34;;;;;;;0.10;0.10;;;;;;;;;;5018753;28;20399;-72
2023/10/14 01:34:04;;;;;;;0.00;0.00;;;;;;;;;;5017324;28;20512;-72
2023/10/14 01:36:37;;;;;;;1.67;1.55;;;;;;;;;;5019647;28;20080;-72
2023/10/14 01:39:11;;;;;;;0.00;0.00;;;;;;;;;;5015124;28;20490;-72
2023/10/14 01:41:38;;;;;;;2.75;2.45;;;;;;;;;;5018391;28;20087;-72
2023/10/14 01:44:09;;;;;;;0.73;0.73;;;;;;;;;;5019412;28;20049;-72
2023/10/14 01:46:39;;;;;;;0.40;0.40;;;;;;;;;;5019255;28;20452;-71
2023/10/14 01:49:18;;;;;;;1.65;1.55;;;;;;;;;;5014437;28;20446;-71
2023/10/14 01:51:49;;;;;;;0.15;0.15;;;;;;;;;;5010701;28;20149;-72
2023/10/14 01:54:17;;;;;;;0.30;0.30;;;;;;;;;;5017625;28;20454;-72
2023/10/14 01:56:46;;;;;;;1.25;0.85;;;;;;;;;;5022320;28;20045;-72
2023/10/14 01:59:16;;;;;;;0.10;0.10;;;;;;;;;;5007775;28;20072;-72
2023/10/14 02:01:43;;;;;;;0.10;0.10;;;;;;;;;;5021077;28;20119;-72
2023/10/14 02:04:14;;;;;;;11.20;10.40;;;;;;;;;;5022728;28;20045;-71
2023/10/14 02:06:46;;;;;;;0.30;0.30;;;;;;;;;;5018028;28;22080;-72
2023/10/14 02:09:17;;;;;;;0.15;0.15;;;;;;;;;;5031145;28;20504;-72
2023/10/14 02:11:47;;;;;;;0.00;0.00;;;;;;;;;;5035349;28;20064;-72
2023/10/14 02:14:18;;;;;;;0.65;0.65;;;;;;;;;;5009256;28;20042;-71
2023/10/14 02:16:46;;;;;;;0.30;0.30;;;;;;;;;;5019438;28;20577;-72
2023/10/14 02:20:07;;;;;;;10.63;1.38;;;;;;;;;;5020569;28;20115;-72
2023/10/14 02:22:11;;;;;;;0.00;0.00;;;;;;;;;;5012060;28;20053;-72
2023/10/14 02:24:40;;;;;;;0.30;0.30;;;;;;;;;;5023683;28;20140;-72
2023/10/14 02:27:11;;;;;;;13.13;12.25;;;;;;;;;;5018087;28;20054;-71
2023/10/14 02:29:43;;;;;;;0.55;0.55;;;;;;;;;;5025056;28;20046;-72
2023/10/14 02:32:12;;;;;;;0.10;0.10;;;;;;;;;;5021328;28;20069;-72
2023/10/14 02:34:40;;;;;;;1.08;1.08;;;;;;;;;;5032635;28;20658;-71
2023/10/14 02:37:12;;;;;;;1.80;1.55;;;;;;;;;;5017717;28;20128;-72
2023/10/14 02:39:44;;;;;;;0.40;0.40;;;;;;;;;;5019837;28;20106;-72
2023/10/14 02:42:14;;;;;;;0.10;0.10;;;;;;;;;;5022329;28;20042;-72
2023/10/14 02:44:44;;;;;;;0.70;0.70;;;;;;;;;;5021082;28;20046;-72
2023/10/14 02:47:13;;;;;;;0.77;0.77;;;;;;;;;;5013450;28;20038;-72
2023/10/14 02:49:42;;;;;;;0.30;0.30;;;;;;;;;;5024484;28;20054;-72
2023/10/14 02:52:11;;;;;;;0.00;0.00;;;;;;;;;;5026078;28;20510;-72
2023/10/14 02:54:41;;;;;;;0.10;0.10;;;;;;;;;;5055217;22;20041;-70
2023/10/14 02:57:27;;;;;;;0.20;0.20;;;;;;;;;;5030189;28;20133;-70
2023/10/14 02:59:56;;;;;;;1.00;0.60;;;;;;;;;;5026447;28;20049;-70
2023/10/14 03:02:48;;;;;;;0.35;0.35;;;;;;;;;;5045991;28;20564;-70
2023/10/14 03:08:10;;;;;;;0.22;0.22;;;;;;;;;;5028473;28;20540;-70
2023/10/14 03:10:42;;;;;;;0.20;0.20;;;;;;;;;;5026495;28;20491;-70
2023/10/14 03:13:13;;;;;;;0.50;0.50;;;;;;;;;;5041857;28;20099;-70
2023/10/14 03:15:44;;;;;;;0.57;0.57;;;;;;;;;;5029631;28;20064;-70
2023/10/14 03:18:18;;;;;;;;;;;;;;;;;;5028369;28;20045;-70
2023/10/14 03:23:19;;;;;;;0.00;0.00;;;;;;;;;;5025682;28;20509;-69
2023/10/14 03:25:49;;;;;;;0.38;0.38;;;;;;;;;;5025872;28;20045;-70
2023/10/14 03:28:24;;;;;;;1.02;0.95;;;;;;;;;;5027345;28;20044;-70
2023/10/14 03:30:56;;;;;;;0.00;0.00;;;;;;;;;;5026343;28;20407;-70
2023/10/14 03:33:27;;;;;;;39.47;36.65;;;;;;;;;;5028103;28;20046;-70
2023/10/14 03:41:19;;;;;;;0.57;0.47;;;;;;;;;;5025744;28;20123;-70
2023/10/14 03:46:47;;;;;;;0.10;0.10;;;;;;;;;;5025823;28;20065;-70
2023/10/14 03:49:21;;;;;;;0.20;0.20;;;;;;;;;;5027584;28;20095;-70
2023/10/14 03:51:52;;;;;;;0.45;0.45;;;;;;;;;;5027862;28;20558;-70
2023/10/14 03:54:23;;;;;;;0.00;0.00;;;;;;;;;;5025581;28;20049;-70
2023/10/14 03:56:51;;;;;;;31.42;16.13;;;;;;;;;;5027541;28;20069;-69
2023/10/14 03:59:23;;;;;;;29.90;27.25;;;;;;;;;;5026551;28;20053;-70
2023/10/14 04:01:58;;;;;;;1.52;0.73;;;;;;;;;;5024012;28;20515;-70
2023/10/14 04:04:28;;;;;;;0.00;0.00;;;;;;;;;;5022949;28;20053;-70
2023/10/14 04:09:40;;;;;;;313.30;290.42;;;;;;;;;;5024893;28;20037;-73
2023/10/14 04:12:09;;;;;;;0.40;0.35;;;;;;;;;;5025418;28;20056;-71
2023/10/14 04:14:37;;;;;;;0.10;0.10;;;;;;;;;;5024925;28;20471;-71
2023/10/14 04:17:21;;;;;;;0.63;0.45;;;;;;;;;;5024168;28;20050;-69
2023/10/14 04:19:58;;;;;;;0.30;0.30;;;;;;;;;;5026453;28;20499;-70
2023/10/14 04:22:31;;;;;;;0.70;0.70;;;;;;;;;;5024627;28;20048;-70
2023/10/14 04:30:32;;;;;;;0.00;0.00;;;;;;;;;;5027316;28;20589;-69
2023/10/14 04:35:32;;;;;;;0.00;0.00;;;;;;;;;;5019827;28;20042;-70
2023/10/14 04:38:12;;;;;;;0.00;0.00;;;;;;;;;;5027843;28;20046;-70
2023/10/14 04:40:41;;;;;;;4.85;4.63;;;;;;;;;;5030653;28;20045;-70
2023/10/14 04:45:45;;;;;;;0.10;0.10;;;;;;;;;;5022874;28;20491;-70
2023/10/14 04:48:16;;;;;;;0.00;0.00;;;;;;;;;;5024523;28;20061;-70
2023/10/14 04:50:44;;;;;;;0.10;0.10;;;;;;;;;;5024344;28;20069;-70
2023/10/14 04:53:14;;;;;;;0.10;0.10;;;;;;;;;;5026529;28;20052;-70
2023/10/14 04:55:45;;;;;;;0.10;0.10;;;;;;;;;;5027047;28;20046;-70
2023/10/14 04:58:14;;;;;;;0.10;0.10;;;;;;;;;;5025152;28;20056;-69
2023/10/14 05:00:45;;;;;;;0.17;0.17;;;;;;;;;;5021710;28;20051;-70
2023/10/14 05:03:13;;;;;;;2.50;1.20;;;;;;;;;;5026725;28;20050;-70
2023/10/14 05:05:43;;;;;;;0.08;0.08;;;;;;;;;;5025101;28;20099;-69
2023/10/14 05:08:21;;;;;;;0.50;0.50;;;;;;;;;;5025778;28;20045;-70
2023/10/14 05:10:50;;;;;;;0.20;0.20;;;;;;;;;;5055382;28;20047;-70
2023/10/14 05:13:31;;;;;;;0.00;0.00;;;;;;;;;;5026785;28;20061;-69
2023/10/14 05:18:59;;;;;;;0.10;0.10;;;;;;;;;;5024450;28;20556;-70
2023/10/14 05:21:36;;;;;;;0.45;0.22;;;;;;;;;;5024891;28;20045;-70
2023/10/14 05:24:11;;;;;;;0.98;0.63;;;;;;;;;;5023444;28;20813;-69
2023/10/14 05:26:58;;;;;;;0.00;0.00;;;;;;;;;;5023801;28;20057;-69
2023/10/14 05:29:26;;;;;;;0.00;0.00;;;;;;;;;;5027336;28;20408;-70
2023/10/14 05:32:04;;;;;;;0.28;0.28;;;;;;;;;;5026839;28;20045;-70
2023/10/14 05:34:33;;;;;;;0.30;0.20;;;;;;;;;;5026432;28;20429;-69
2023/10/14 05:37:01;;;;;;;5.43;5.07;;;;;;;;;;5021833;28;20053;-70
2023/10/14 05:39:29;;;;;;;0.50;0.38;;;;;;;;;;5023658;28;20045;-69
2023/10/14 05:42:00;;;;;;;0.20;0.20;;;;;;;;;;5026548;28;20632;-69
2023/10/14 05:44:28;;;;;;;0.20;0.20;;;;;;;;;;5025295;28;20124;-70
2023/10/14 05:46:55;;;;;;;2.63;1.95;;;;;;;;;;5022312;28;20134;-70
2023/10/14 05:49:24;;;;;;;0.28;0.28;;;;;;;;;;5021920;28;20057;-70
2023/10/14 05:51:52;;;;;;;0.00;0.00;;;;;;;;;;5019033;28;20054;-71
2023/10/14 05:54:23;;;;;;;0.22;0.22;;;;;;;;;;5024766;28;20082;-70
2023/10/14 05:56:54;;;;;;;15.43;2.17;;;;;;;;;;5020293;28;20049;-70
2023/10/14 05:59:21;;;;;;;0.10;0.10;;;;;;;;;;5021364;28;20332;-70
2023/10/14 06:01:49;;;;;;;0.70;0.68;;;;;;;;;;5016843;28;20103;-71
2023/10/14 06:04:17;;;;;;;0.10;0.10;;;;;;;;;;5020083;28;20046;-70
2023/10/14 06:06:44;;;;;;;0.10;0.10;;;;;;;;;;5018997;28;20136;-71
2023/10/14 06:09:12;;;;;;;0.38;0.30;;;;;;;;;;5024479;28;20605;-71
2023/10/14 06:11:39;;;;;;;0.10;0.10;;;;;;;;;;5021120;28;20499;-70
2023/10/14 06:14:07;;;;;;;0.10;0.10;;;;;;;;;;5024084;28;20063;-70
2023/10/14 06:16:34;;;;;;;0.03;0.03;;;;;;;;;;5027375;28;20419;-70
2023/10/14 06:19:04;;;;;;;0.25;0.10;;;;;;;;;;5026331;28;20160;-69
2023/10/14 06:21:35;;;;;;;0.35;0.35;;;;;;;;;;5026158;28;20053;-70
2023/10/14 06:24:04;;;;;;;0.95;0.77;;;;;;;;;;5020662;28;20100;-70
2023/10/14 06:26:34;;;;;;;0.22;0.22;;;;;;;;;;5025560;28;20057;-70
2023/10/14 06:29:01;;;;;;;0.95;0.93;;;;;;;;;;5027445;28;20546;-70
2023/10/14 06:31:29;;;;;;;0.00;0.00;;;;;;;;;;5019480;28;20041;-69
2023/10/14 06:33:56;;;;;;;1.33;0.88;;;;;;;;;;5017947;28;20081;-70
2023/10/14 06:36:26;;;;;;;0.20;0.20;;;;;;;;;;5016804;28;20410;-70
2023/10/14 06:39:38;;;;;;;1.88;1.75;;;;;;;;;;5025503;28;20545;-70
2023/10/14 06:42:50;;;;;;;0.35;0.35;;;;;;;;;;5024222;28;20029;-70
2023/10/14 06:45:18;;;;;;;0.43;0.43;;;;;;;;;;5025705;28;20123;-69
2023/10/14 06:47:47;;;;;;;0.35;0.35;;;;;;;;;;5025735;28;20041;-70
2023/10/14 06:50:15;;;;;;;0.00;0.00;;;;;;;;;;5024543;28;20570;-69
2023/10/14 06:52:43;;;;;;;0.60;0.60;;;;;;;;;;5022687;28;20140;-69
2023/10/14 06:55:10;;;;;;;0.25;0.25;;;;;;;;;;5022185;28;20443;-70
2023/10/14 06:57:38;;;;;;;0.17;0.17;;;;;;;;;;5025319;28;20411;-69
2023/10/14 07:00:12;;;;;;;0.20;0.20;;;;;;;;;;5026607;28;20080;-70
2023/10/14 07:02:40;;;;;;;0.65;0.60;;;;;;;;;;5025990;28;20427;-70
2023/10/14 07:05:10;;;;;;;1.75;1.67;;;;;;;;;;5023981;28;20041;-70
2023/10/14 07:07:37;;;;;;;0.47;0.47;;;;;;;;;;5025518;28;20464;-70
2023/10/14 07:10:06;;;;;;;0.20;0.20;;;;;;;;;;5026204;28;20068;-70
2023/10/14 07:12:37;;;;;;;0.20;0.20;;;;;;;;;;5025068;28;20499;-71
2023/10/14 07:15:12;;;;;;;0.40;0.40;;;;;;;;;;5026197;28;20049;-69
2023/10/14 07:17:41;;;;;;;1.48;1.48;;;;;;;;;;5024781;28;20451;-70
2023/10/14 07:20:13;;;;;;;0.30;0.30;;;;;;;;;;5026305;28;20496;-70
2023/10/14 07:22:42;;;;;;;0.57;0.57;;;;;;;;;;5024512;28;20046;-70
2023/10/14 07:25:10;;;;;;;15.60;14.35;;;;;;;;;;5025538;28;20049;-70
2023/10/14 07:27:38;;;;;;;0.45;0.45;;;;;;;;;;5023940;28;20041;-69
2023/10/14 07:30:15;;;;;;;0.20;0.20;;;;;;;;;;5025281;28;20068;-70
2023/10/14 07:32:43;;;;;;;0.32;0.32;;;;;;;;;;5024835;28;20049;-70
2023/10/14 07:35:13;;;;;;;0.20;0.20;;;;;;;;;;5023985;28;20072;-70
2023/10/14 07:37:42;;;;;;;0.22;0.22;;;;;;;;;;5026707;28;20552;-70
2023/10/14 07:40:22;;;;;;;0.00;0.00;;;;;;;;;;5023454;28;20045;-70
2023/10/14 07:42:54;;;;;;;0.80;0.80;;;;;;;;;;5038561;28;20057;-70
2023/10/14 07:45:23;;;;;;;2.63;2.53;;;;;;;;;;5025607;28;20076;-70
2023/10/14 07:47:50;;;;;;;0.20;0.20;;;;;;;;;;5025418;28;20057;-70
2023/10/14 07:50:18;;;;;;;7.22;2.30;;;;;;;;;;5025289;28;20053;-70
2023/10/14 07:52:45;;;;;;;77.88;72.35;;;;;;;;;;5021356;28;20107;-71
2023/10/14 07:55:19;;;;;;;16.13;15.23;;;;;;;;;;5025383;28;20427;-71
2023/10/14 07:57:48;;;;;;;0.38;0.38;;;;;;;;;;5026225;28;20040;-71
2023/10/14 08:00:16;;;;;;;11.80;8.93;;;;;;;;;;5024421;28;20045;-70
2023/10/14 08:02:43;;;;;;;51.88;48.17;;;;;;;;;;5025640;28;20059;-71
2023/10/14 08:05:11;;;;;;;0.10;0.10;;;;;;;;;;5024258;28;20060;-71
2023/10/14 08:07:42;;;;;;;0.20;0.10;;;;;;;;;;5025445;28;20519;-70
2023/10/14 08:10:21;;;;;;;0.10;0.10;;;;;;;;;;5024202;28;20049;-70
2023/10/14 08:12:52;;;;;;;0.10;0.10;;;;;;;;;;5025081;28;20458;-70
2023/10/14 08:15:20;;;;;;;48.93;45.10;;;;;;;;;;5025751;28;20061;-71
2023/10/14 08:17:51;;;;;;;14.32;13.20;;;;;;;;;;5026108;28;20365;-70
2023/10/14 08:20:19;;;;;;;1.13;0.70;;;;;;;;;;5024990;28;20099;-71
2023/10/14 08:22:47;;;;;;;1.15;1.15;;;;;;;;;;5024655;28;20058;-71
2023/10/14 08:25:18;;;;;;;1.17;0.95;;;;;;;;;;5023813;28;20045;-71
2023/10/14 08:27:46;;;;;;;0.65;0.65;;;;;;;;;;5019534;28;20045;-72
2023/10/14 08:30:16;;;;;;;0.85;0.85;;;;;;;;;;5021291;28;20407;-71
2023/10/14 08:32:44;;;;;;;0.30;0.30;;;;;;;;;;5019782;28;20045;-71
2023/10/14 08:35:15;;;;;;;7.95;7.55;;;;;;;;;;5021103;28;20045;-71
2023/10/14 08:37:50;;;;;;;4.82;4.40;;;;;;;;;;5024856;28;20084;-71
2023/10/14 08:40:19;;;;;;;0.13;0.13;;;;;;;;;;5024321;28;20187;-71
2023/10/14 08:42:49;;;;;;;0.00;0.00;;;;;;;;;;5025004;28;20140;-71
2023/10/14 08:45:18;;;;;;;0.45;0.45;;;;;;;;;;5025892;28;20108;-71
2023/10/14 08:47:49;;;;;;;0.15;0.15;;;;;;;;;;5021424;28;20530;-72
2023/10/14 08:50:29;;;;;;;0.10;0.10;;;;;;;;;;5021936;28;20443;-71
2023/10/14 08:52:57;;;;;;;0.40;0.40;;;;;;;;;;5038095;23;20085;-70
2023/10/14 08:55:28;;;;;;;0.00;0.00;;;;;;;;;;5035532;28;20049;-70
2023/10/14 08:58:01;;;;;;;0.03;0.03;;;;;;;;;;5024512;28;20046;-70
2023/10/14 09:00:30;;;;;;;1.65;1.55;;;;;;;;;;5020738;28;20443;-70
2023/10/14 09:02:58;;;;;;;8.68;7.97;;;;;;;;;;5022303;28;20495;-71
2023/10/14 09:05:26;;;;;;;0.17;0.17;;;;;;;;;;5021589;28;20080;-70
2023/10/14 09:07:55;;;;;;;0.10;0.10;;;;;;;;;;5018552;28;20507;-70
2023/10/14 09:10:24;;;;;;;0.10;0.10;;;;;;;;;;5021717;28;20053;-71
2023/10/14 09:12:57;;;;;;;0.47;0.47;;;;;;;;;;5018756;28;20132;-70
2023/10/14 09:15:25;;;;;;;0.52;0.52;;;;;;;;;;5025286;28;20073;-70
2023/10/14 09:17:55;;;;;;;0.80;0.17;;;;;;;;;;5021182;28;20041;-70
2023/10/14 09:20:31;;;;;;;0.03;0.03;;;;;;;;;;5024692;28;20130;-70
2023/10/14 09:23:17;;;;;;;0.00;0.00;;;;;;;;;;5021205;28;20053;-70
2023/10/14 09:25:49;;;;;;;0.00;0.00;;;;;;;;;;5026214;28;20048;-70
2023/10/14 09:28:20;;;;;;;0.05;0.05;;;;;;;;;;5022145;28;20045;-70
2023/10/14 09:30:51;;;;;;;0.30;0.30;;;;;;;;;;5025567;28;20103;-70
2023/10/14 09:33:21;;;;;;;0.00;0.00;;;;;;;;;;5022040;28;20121;-70
2023/10/14 09:35:49;;;;;;;0.00;0.00;;;;;;;;;;5016233;28;20123;-70
2023/10/14 09:38:24;;;;;;;0.00;0.00;;;;;;;;;;5022195;28;20502;-71
2023/10/14 09:40:59;;;;;;;0.17;0.17;;;;;;;;;;5036115;28;20179;-71
2023/10/14 09:43:27;;;;;;;0.10;0.10;;;;;;;;;;5023121;28;20115;-71
2023/10/14 09:45:56;;;;;;;0.00;0.00;;;;;;;;;;5025290;28;20563;-71
2023/10/14 09:48:31;;;;;;;0.00;0.00;;;;;;;;;;5025700;28;20057;-71
2023/10/14 09:51:03;;;;;;;0.32;0.32;;;;;;;;;;5023656;28;20091;-71
2023/10/14 09:53:34;;;;;;;0.20;0.20;;;;;;;;;;5015817;28;20041;-71
2023/10/14 09:56:11;;;;;;;0.00;0.00;;;;;;;;;;5022469;28;20521;-71
2023/10/14 09:58:43;;;;;;;0.15;0.15;;;;;;;;;;5022459;28;20103;-72
2023/10/14 10:01:14;;;;;;;;;;;;;;;;;;5016146;28;20407;-71
2023/10/14 10:03:46;;;;;;;0.00;0.00;;;;;;;;;;5010204;28;20381;-71
2023/10/14 10:06:16;;;;;;;0.00;0.00;;;;;;;;;;5014290;28;20115;-71
2023/10/14 10:08:44;;;;;;;0.00;0.00;;;;;;;;;;5013694;28;20061;-71
2023/10/14 10:11:12;;;;;;;0.00;0.00;;;;;;;;;;5018657;28;20434;-71
2023/10/14 10:13:40;;;;;;;0.20;0.20;;;;;;;;;;5021015;28;20041;-71
2023/10/14 10:16:08;;;;;;;0.10;0.10;;;;;;;;;;5018678;28;20467;-71
2023/10/14 10:18:56;;;;;;;0.10;0.10;;;;;;;;;;5017092;28;20124;-71
2023/10/14 10:21:35;;;;;;;0.00;0.00;;;;;;;;;;5014720;28;20050;-71
2023/10/14 10:24:18;;;;;;;0.00;0.00;;;;;;;;;;5021139;28;20404;-72
2023/10/14 10:27:04;;;;;;;0.25;0.25;;;;;;;;;;5020005;28;20049;-72
2023/10/14 10:29:35;;;;;;;0.00;0.00;;;;;;;;;;5018915;28;20124;-71
2023/10/14 10:32:06;;;;;;;0.52;0.52;;;;;;;;;;5022564;28;20049;-71
2023/10/14 10:34:34;;;;;;;0.05;0.05;;;;;;;;;;5021037;28;20048;-72
2023/10/14 10:37:05;;;;;;;0.10;0.10;;;;;;;;;;5022776;28;20353;-71
2023/10/14 10:39:32;;;;;;;0.00;0.00;;;;;;;;;;5023728;28;20046;-71
2023/10/14 10:42:00;;;;;;;0.10;0.10;;;;;;;;;;5024146;28;20427;-72
2023/10/14 10:44:33;;;;;;;0.32;0.32;;;;;;;;;;5018980;28;20044;-71
2023/10/14 10:47:02;;;;;;;0.03;0.03;;;;;;;;;;5022724;28;20049;-71
2023/10/14 10:49:48;;;;;;;0.05;0.05;;;;;;;;;;5017135;28;20060;-71
2023/10/14 10:52:16;;;;;;;0.10;0.10;;;;;;;;;;5024095;28;20046;-71
2023/10/14 10:54:45;;;;;;;0.00;0.00;;;;;;;;;;5023863;28;20136;-71
2023/10/14 10:57:13;;;;;;;0.00;0.00;;;;;;;;;;5022185;28;20129;-71
2023/10/14 10:59:41;;;;;;;0.00;0.00;;;;;;;;;;5026541;28;20065;-71
2023/10/14 11:02:09;;;;;;;7.78;7.10;;;;;;;;;;5021893;28;20514;-71
2023/10/14 11:04:39;;;;;;;0.17;0.17;;;;;;;;;;5027040;28;20398;-71
2023/10/14 11:07:07;;;;;;;0.00;0.00;;;;;;;;;;5027475;28;20065;-71
2023/10/14 11:09:39;;;;;;;0.00;0.00;;;;;;;;;;5029130;28;20041;-72
2023/10/14 11:12:14;;;;;;;0.15;0.15;;;;;;;;;;5023798;28;20037;-72
2023/10/14 11:14:41;;;;;;;0.00;0.00;;;;;;;;;;5023827;28;20044;-72
2023/10/14 11:17:09;;;;;;;0.35;0.35;;;;;;;;;;5027167;28;20037;-72
2023/10/14 11:19:36;;;;;;;0.22;0.15;;;;;;;;;;5025782;28;20045;-72
2023/10/14 11:22:04;;;;;;;0.00;0.00;;;;;;;;;;5025986;28;20199;-72
2023/10/14 11:24:32;;;;;;;0.00;0.00;;;;;;;;;;5026158;28;20126;-71
2023/10/14 11:27:01;;;;;;;0.68;0.68;;;;;;;;;;5025533;28;20140;-71
2023/10/14 11:29:33;;;;;;;0.20;0.20;;;;;;;;;;5029130;28;20513;-72
2023/10/14 11:32:02;;;;;;;0.32;0.32;;;;;;;;;;5030145;28;20041;-71
2023/10/14 11:34:38;;;;;;;0.00;0.00;;;;;;;;;;5021571;28;20041;-71
2023/10/14 11:37:15;;;;;;;0.77;0.63;;;;;;;;;;5026712;28;20053;-71
2023/10/14 11:39:43;;;;;;;0.25;0.25;;;;;;;;;;5026904;28;20091;-71
2023/10/14 11:42:11;;;;;;;0.20;0.20;;;;;;;;;;5026842;28;20060;-71
2023/10/14 11:44:38;;;;;;;0.10;0.10;;;;;;;;;;5026401;28;20498;-72
2023/10/14 11:47:07;;;;;;;0.10;0.10;;;;;;;;;;5026940;28;20073;-71
2023/10/14 11:49:38;;;;;;;1.50;0.50;;;;;;;;;;5025137;28;20049;-71
2023/10/14 11:52:06;;;;;;;0.10;0.10;;;;;;;;;;5024558;28;20051;-71
2023/10/14 11:54:34;;;;;;;7.53;7.05;;;;;;;;;;5024247;28;20514;-70
2023/10/14 11:57:02;;;;;;;0.10;0.10;;;;;;;;;;5025634;28;20049;-71
2023/10/14 11:59:29;;;;;;;22.30;20.83;;;;;;;;;;5008354;28;20038;-71
2023/10/14 12:01:58;;;;;;;12.45;10.95;;;;;;;;;;5023868;28;20052;-70
2023/10/14 12:04:28;;;;;;;0.00;0.00;;;;;;;;;;5028258;28;20097;-71
2023/10/14 12:06:56;;;;;;;0.38;0.38;;;;;;;;;;5031269;28;20055;-71
2023/10/14 12:09:23;;;;;;;7.03;4.72;;;;;;;;;;5023435;28;20070;-71
2023/10/14 12:11:52;;;;;;;0.73;0.73;;;;;;;;;;5028622;28;20084;-69
2023/10/14 12:14:20;;;;;;;0.10;0.10;;;;;;;;;;5024750;28;20068;-70
2023/10/14 12:16:47;;;;;;;0.00;0.00;;;;;;;;;;5028875;28;20049;-71
2023/10/14 12:19:19;;;;;;;0.22;0.22;;;;;;;;;;5032960;28;20049;-70
2023/10/14 12:21:48;;;;;;;12.15;11.45;;;;;;;;;;5023027;28;20125;-70
2023/10/14 12:24:15;;;;;;;0.10;0.10;;;;;;;;;;5023854;28;20412;-70
2023/10/14 12:26:46;;;;;;;0.32;0.30;;;;;;;;;;5017448;28;20050;-71
2023/10/14 12:29:13;;;;;;;0.10;0.10;;;;;;;;;;5022052;28;20116;-71
2023/10/14 12:31:44;;;;;;;0.32;0.32;;;;;;;;;;5024652;28;20049;-71
2023/10/14 12:34:14;;;;;;;0.00;0.00;;;;;;;;;;5026743;28;20099;-70
2023/10/14 12:36:45;;;;;;;0.00;0.00;;;;;;;;;;5026342;28;20204;-71
2023/10/14 12:39:19;;;;;;;3.40;1.33;;;;;;;;;;5027488;28;20064;-71
2023/10/14 12:41:49;;;;;;;0.00;0.00;;;;;;;;;;5025313;28;20054;-71
2023/10/14 12:44:19;;;;;;;0.10;0.10;;;;;;;;;;5024970;28;20057;-71
2023/10/14 12:46:47;;;;;;;7.25;6.82;;;;;;;;;;5022145;28;20283;-71
2023/10/14 12:49:19;;;;;;;0.20;0.20;;;;;;;;;;5021574;28;20049;-71
2023/10/14 12:51:48;;;;;;;0.15;0.15;;;;;;;;;;5023215;28;20208;-70
2023/10/14 12:54:17;;;;;;;0.00;0.00;;;;;;;;;;5017186;28;20148;-70
2023/10/14 12:56:45;;;;;;;1.30;1.25;;;;;;;;;;5019950;28;20531;-69
2023/10/14 12:59:12;;;;;;;0.00;0.00;;;;;;;;;;5020268;28;20097;-70
2023/10/14 13:01:46;;;;;;;0.00;0.00;;;;;;;;;;5017565;28;20049;-70
2023/10/14 13:04:19;;;;;;;0.00;0.00;;;;;;;;;;5015357;28;20045;-71
2023/10/14 13:06:49;;;;;;;0.00;0.00;;;;;;;;;;5019952;28;20148;-70
2023/10/14 13:09:17;;;;;;;0.10;0.10;;;;;;;;;;5014000;28;20052;-69
2023/10/14 13:11:45;;;;;;;10.00;1.75;;;;;;;;;;5030370;28;20050;-70
2023/10/14 13:14:28;;;;;;;0.20;0.20;;;;;;;;;;5017288;28;20060;-69
2023/10/14 13:16:58;;;;;;;0.40;0.38;;;;;;;;;;5012664;28;20045;-69
2023/10/14 13:19:34;;;;;;;0.10;0.10;;;;;;;;;;5012222;28;20151;-70
2023/10/14 13:22:03;;;;;;;0.25;0.25;;;;;;;;;;5016254;28;20490;-69
2023/10/14 13:24:31;;;;;;;0.00;0.00;;;;;;;;;;5019729;28;20060;-70
2023/10/14 13:26:59;;;;;;;0.70;0.60;;;;;;;;;;5023616;28;24160;-68
2023/10/14 13:29:27;;;;;;;4.30;4.10;;;;;;;;;;5020415;28;20084;-69
2023/10/14 13:31:54;;;;;;;10.88;10.32;;;;;;;;;;5029926;28;20061;-70
2023/10/14 13:34:21;;;;;;;0.45;0.45;;;;;;;;;;5021826;28;20496;-68
2023/10/14 13:36:49;;;;;;;0.10;0.10;;;;;;;;;;5028421;28;20049;-70
2023/10/14 13:39:25;;;;;;;17.77;16.60;;;;;;;;;;5028832;28;20522;-69
2023/10/14 13:41:53;;;;;;;0.10;0.10;;;;;;;;;;5020501;28;20775;-69
2023/10/14 13:44:21;;;;;;;0.08;0.08;;;;;;;;;;5023261;28;20625;-70
2023/10/14 13:46:49;;;;;;;0.15;0.15;;;;;;;;;;5022380;28;20061;-70
2023/10/14 13:49:23;;;;;;;3.60;3.45;;;;;;;;;;5034395;28;20063;-71
2023/10/14 13:51:52;;;;;;;32.35;30.17;;;;;;;;;;5024733;28;20069;-69
2023/10/14 13:54:20;;;;;;;0.10;0.10;;;;;;;;;;5023372;28;20057;-71
2023/10/14 13:56:48;;;;;;;30.48;28.05;;;;;;;;;;5025763;28;20085;-70
2023/10/14 13:59:16;;;;;;;0.00;0.00;;;;;;;;;;5023830;28;20050;-70
2023/10/14 14:01:44;;;;;;;1.52;0.45;;;;;;;;;;5017611;28;20041;-69
2023/10/14 14:04:16;;;;;;;0.10;0.10;;;;;;;;;;5021777;28;20122;-70
2023/10/14 14:06:46;;;;;;;0.35;0.35;;;;;;;;;;5023925;28;20053;-68
2023/10/14 14:09:14;;;;;;;0.10;0.10;;;;;;;;;;5025056;28;20053;-70
2023/10/14 14:11:43;;;;;;;0.10;0.10;;;;;;;;;;5021361;28;20046;-70
2023/10/14 14:14:14;;;;;;;0.20;0.20;;;;;;;;;;5011473;28;20041;-70
2023/10/14 14:16:42;;;;;;;;;;;;;;;;;;5014608;28;20045;-69
2023/10/14 14:19:11;;;;;;;0.10;0.10;;;;;;;;;;5023755;28;19967;-69
2023/10/14 14:21:43;;;;;;;1.92;1.83;;;;;;;;;;5017442;28;20049;-69
2023/10/14 14:24:11;;;;;;;6.35;5.78;;;;;;;;;;5018931;28;20100;-68
2023/10/14 14:26:39;;;;;;;0.45;0.10;;;;;;;;;;5013229;28;20416;-69
2023/10/14 14:29:09;;;;;;;0.00;0.00;;;;;;;;;;5016164;28;20535;-70
2023/10/14 14:31:37;;;;;;;4.88;2.28;;;;;;;;;;5014818;28;20140;-70
2023/10/14 14:34:05;;;;;;;0.10;0.10;;;;;;;;;;5016480;28;20049;-69
2023/10/14 14:36:33;;;;;;;0.10;0.10;;;;;;;;;;5020955;28;20041;-69
2023/10/14 14:39:02;;;;;;;13.98;12.50;;;;;;;;;;5022717;28;20698;-71
2023/10/14 14:41:29;;;;;;;6.25;5.72;;;;;;;;;;5027236;28;20048;-69
2023/10/14 14:43:57;;;;;;;0.00;0.00;;;;;;;;;;5036768;28;20061;-70
2023/10/14 14:46:25;;;;;;;0.55;0.10;;;;;;;;;;5020882;28;20077;-69
2023/10/14 14:48:53;;;;;;;0.17;0.15;;;;;;;;;;5031470;28;20053;-70
2023/10/14 14:51:21;;;;;;;0.55;0.55;;;;;;;;;;5027235;28;20136;-70
2023/10/14 14:57:38;;;;;;;0.88;0.88;;;;;;;;;;5009415;28;20065;-88
2023/10/14 15:00:30;;;;;;;118.30;109.35;;;;;;;;;;5013946;28;20057;-86
2023/10/14 15:03:58;;;;;;;0.25;0.10;;;;;;;;;;5000819;28;20217;-86
2023/10/14 15:07:18;;;;;;;1.27;0.65;;;;;;;;;;4983176;28;20048;-87
2023/10/14 15:10:23;;;;;;;0.00;0.00;;;;;;;;;;4982957;28;20041;-89
2023/10/14 15:13:28;;;;;;;0.20;0.20;;;;;;;;;;4983281;28;20097;-86
2023/10/14 15:16:48;;;;;;;0.00;0.00;;;;;;;;;;4973001;28;20097;-85
2023/10/14 15:19:58;;;;;;;0.00;0.00;;;;;;;;;;4964534;28;20059;-86
2023/10/14 15:26:14;;;;;;;0.20;0.10;;;;;;;;;;5033704;28;20068;-69
2023/10/14 15:28:41;;;;;;;0.03;0.03;;;;;;;;;;5044526;28;20376;-72
2023/10/14 15:31:09;;;;;;;0.00;0.00;;;;;;;;;;5044818;28;22512;-70
2023/10/14 15:33:37;;;;;;;0.00;0.00;;;;;;;;;;5056564;28;20613;-74
2023/10/14 15:36:05;;;;;;;0.13;0.13;;;;;;;;;;5059582;28;20039;-70
2023/10/14 15:38:33;;;;;;;6.95;6.47;;;;;;;;;;5044862;28;20749;-69
2023/10/14 15:41:01;;;;;;;0.00;0.00;;;;;;;;;;5056991;28;20098;-71
2023/10/14 15:43:29;;;;;;;0.32;0.10;;;;;;;;;;5054504;28;20131;-72
2023/10/14 15:46:02;;;;;;;0.20;0.20;;;;;;;;;;5053536;28;20044;-72
2023/10/14 15:48:31;;;;;;;0.08;0.08;;;;;;;;;;5062131;28;20048;-72